sensor_id;sensor_type;location;lat;lon;timestamp;P1;durP1;ratioP1;P2;durP2;ratioP2
40074;SDS011;26529;51.530;11.754;2023-04-15T00:00:13;2.58;;;0.80;;
40074;SDS011;26529;51.530;11.754;2023-04-15T00:02:40;2.38;;;1.10;;
40074;SDS011;26529;51.530;11.754;2023-04-15T00:05:06;3.55;;;1.30;;
40074;SDS011;26529;51.530;11.754;2023-04-15T00:07:32;1.52;;;0.65;;
40074;SDS011;26529;51.530;11.754;2023-04-15T00:09:58;2.00;;;1.02;;
40074;SDS011;26529;51.530;11.754;2023-04-15T00:12:24;2.55;;;1.45;;
40074;SDS011;26529;51.530;11.754;2023-04-15T00:14:52;3.10;;;1.02;;
40074;SDS011;26529;51.530;11.754;2023-04-15T00:17:18;1.50;;;0.70;;
40074;SDS011;26529;51.530;11.754;2023-04-15T00:19:44;1.85;;;0.82;;
40074;SDS011;26529;51.530;11.754;2023-04-15T00:22:10;2.97;;;0.70;;
40074;SDS011;26529;51.530;11.754;2023-04-15T00:24:36;2.40;;;0.93;;
40074;SDS011;26529;51.530;11.754;2023-04-15T00:27:02;2.63;;;0.68;;
40074;SDS011;26529;51.530;11.754;2023-04-15T00:29:28;2.33;;;0.70;;
40074;SDS011;26529;51.530;11.754;2023-04-15T00:31:54;2.33;;;0.70;;
40074;SDS011;26529;51.530;11.754;2023-04-15T00:34:21;1.50;;;0.77;;
40074;SDS011;26529;51.530;11.754;2023-04-15T00:36:47;3.42;;;1.30;;
40074;SDS011;26529;51.530;11.754;2023-04-15T00:39:13;1.20;;;0.63;;
40074;SDS011;26529;51.530;11.754;2023-04-15T00:41:41;0.88;;;0.50;;
40074;SDS011;26529;51.530;11.754;2023-04-15T00:44:08;3.53;;;0.90;;
40074;SDS011;26529;51.530;11.754;2023-04-15T00:46:35;2.30;;;0.75;;
40074;SDS011;26529;51.530;11.754;2023-04-15T00:49:03;1.65;;;0.57;;
40074;SDS011;26529;51.530;11.754;2023-04-15T00:51:29;4.45;;;0.93;;
40074;SDS011;26529;51.530;11.754;2023-04-15T00:53:57;1.35;;;0.65;;
40074;SDS011;26529;51.530;11.754;2023-04-15T00:56:24;3.50;;;1.05;;
40074;SDS011;26529;51.530;11.754;2023-04-15T00:58:52;2.88;;;0.80;;
40074;SDS011;26529;51.530;11.754;2023-04-15T01:01:21;1.23;;;0.70;;
40074;SDS011;26529;51.530;11.754;2023-04-15T01:03:49;1.92;;;0.80;;
40074;SDS011;26529;51.530;11.754;2023-04-15T01:06:15;2.63;;;0.77;;
40074;SDS011;26529;51.530;11.754;2023-04-15T01:08:41;2.20;;;0.93;;
40074;SDS011;26529;51.530;11.754;2023-04-15T01:11:07;4.28;;;0.85;;
40074;SDS011;26529;51.530;11.754;2023-04-15T01:13:34;1.88;;;0.95;;
40074;SDS011;26529;51.530;11.754;2023-04-15T01:16:00;3.45;;;1.10;;
40074;SDS011;26529;51.530;11.754;2023-04-15T01:18:27;1.40;;;0.60;;
40074;SDS011;26529;51.530;11.754;2023-04-15T01:20:53;2.85;;;0.95;;
40074;SDS011;26529;51.530;11.754;2023-04-15T01:23:22;3.55;;;0.98;;
40074;SDS011;26529;51.530;11.754;2023-04-15T01:25:48;1.10;;;0.60;;
40074;SDS011;26529;51.530;11.754;2023-04-15T01:28:15;1.48;;;0.50;;
40074;SDS011;26529;51.530;11.754;2023-04-15T01:30:41;1.15;;;0.70;;
40074;SDS011;26529;51.530;11.754;2023-04-15T01:33:07;2.15;;;0.70;;
40074;SDS011;26529;51.530;11.754;2023-04-15T01:35:51;1.20;;;0.60;;
40074;SDS011;26529;51.530;11.754;2023-04-15T01:38:17;1.40;;;0.60;;
40074;SDS011;26529;51.530;11.754;2023-04-15T01:40:43;1.23;;;0.77;;
40074;SDS011;26529;51.530;11.754;2023-04-15T01:43:10;1.10;;;0.60;;
40074;SDS011;26529;51.530;11.754;2023-04-15T01:45:36;1.60;;;0.70;;
40074;SDS011;26529;51.530;11.754;2023-04-15T01:48:04;1.38;;;0.80;;
40074;SDS011;26529;51.530;11.754;2023-04-15T01:50:31;1.48;;;0.90;;
40074;SDS011;26529;51.530;11.754;2023-04-15T01:52:58;1.20;;;0.80;;
40074;SDS011;26529;51.530;11.754;2023-04-15T01:55:24;3.38;;;0.95;;
40074;SDS011;26529;51.530;11.754;2023-04-15T01:57:51;1.33;;;0.65;;
40074;SDS011;26529;51.530;11.754;2023-04-15T02:00:18;1.30;;;0.80;;
40074;SDS011;26529;51.530;11.754;2023-04-15T02:02:45;1.67;;;0.70;;
40074;SDS011;26529;51.530;11.754;2023-04-15T02:05:11;1.65;;;0.63;;
40074;SDS011;26529;51.530;11.754;2023-04-15T02:07:38;1.30;;;0.63;;
40074;SDS011;26529;51.530;11.754;2023-04-15T02:10:05;1.45;;;0.60;;
40074;SDS011;26529;51.530;11.754;2023-04-15T02:12:35;2.10;;;0.60;;
40074;SDS011;26529;51.530;11.754;2023-04-15T02:15:02;1.45;;;0.63;;
40074;SDS011;26529;51.530;11.754;2023-04-15T02:17:29;2.40;;;0.60;;
40074;SDS011;26529;51.530;11.754;2023-04-15T02:19:56;0.73;;;0.60;;
40074;SDS011;26529;51.530;11.754;2023-04-15T02:22:24;1.98;;;0.60;;
40074;SDS011;26529;51.530;11.754;2023-04-15T02:24:51;1.85;;;0.77;;
40074;SDS011;26529;51.530;11.754;2023-04-15T02:27:17;1.02;;;0.63;;
40074;SDS011;26529;51.530;11.754;2023-04-15T02:29:44;1.42;;;0.60;;
40074;SDS011;26529;51.530;11.754;2023-04-15T02:32:11;1.13;;;0.65;;
40074;SDS011;26529;51.530;11.754;2023-04-15T02:34:39;2.35;;;0.80;;
40074;SDS011;26529;51.530;11.754;2023-04-15T02:37:09;1.15;;;0.47;;
40074;SDS011;26529;51.530;11.754;2023-04-15T02:39:37;0.35;;;0.30;;
40074;SDS011;26529;51.530;11.754;2023-04-15T02:42:04;1.40;;;0.43;;
40074;SDS011;26529;51.530;11.754;2023-04-15T02:44:33;3.78;;;1.05;;
40074;SDS011;26529;51.530;11.754;2023-04-15T02:47:03;2.45;;;0.80;;
40074;SDS011;26529;51.530;11.754;2023-04-15T02:49:32;0.95;;;0.60;;
40074;SDS011;26529;51.530;11.754;2023-04-15T02:52:00;2.40;;;0.90;;
40074;SDS011;26529;51.530;11.754;2023-04-15T02:54:27;1.00;;;0.57;;
40074;SDS011;26529;51.530;11.754;2023-04-15T02:56:54;1.15;;;0.70;;
40074;SDS011;26529;51.530;11.754;2023-04-15T02:59:21;1.55;;;0.50;;
40074;SDS011;26529;51.530;11.754;2023-04-15T03:01:48;1.60;;;0.50;;
40074;SDS011;26529;51.530;11.754;2023-04-15T03:04:15;1.23;;;0.50;;
40074;SDS011;26529;51.530;11.754;2023-04-15T03:06:42;0.98;;;0.82;;
40074;SDS011;26529;51.530;11.754;2023-04-15T03:09:09;1.63;;;0.77;;
40074;SDS011;26529;51.530;11.754;2023-04-15T03:11:37;1.38;;;0.52;;
40074;SDS011;26529;51.530;11.754;2023-04-15T03:14:06;1.30;;;0.80;;
40074;SDS011;26529;51.530;11.754;2023-04-15T03:16:35;2.47;;;0.77;;
40074;SDS011;26529;51.530;11.754;2023-04-15T03:19:02;1.60;;;0.75;;
40074;SDS011;26529;51.530;11.754;2023-04-15T03:21:29;0.45;;;0.40;;
40074;SDS011;26529;51.530;11.754;2023-04-15T03:23:56;7.13;;;1.00;;
40074;SDS011;26529;51.530;11.754;2023-04-15T03:26:27;1.60;;;0.45;;
40074;SDS011;26529;51.530;11.754;2023-04-15T03:28:59;0.77;;;0.68;;
40074;SDS011;26529;51.530;11.754;2023-04-15T03:31:26;2.08;;;0.70;;
40074;SDS011;26529;51.530;11.754;2023-04-15T03:33:52;1.25;;;0.65;;
40074;SDS011;26529;51.530;11.754;2023-04-15T03:36:19;1.48;;;0.60;;
40074;SDS011;26529;51.530;11.754;2023-04-15T03:38:46;2.53;;;0.65;;
40074;SDS011;26529;51.530;11.754;2023-04-15T03:41:14;1.98;;;0.38;;
40074;SDS011;26529;51.530;11.754;2023-04-15T03:43:41;1.00;;;0.55;;
40074;SDS011;26529;51.530;11.754;2023-04-15T03:46:08;0.80;;;0.40;;
40074;SDS011;26529;51.530;11.754;2023-04-15T03:48:34;0.98;;;0.60;;
40074;SDS011;26529;51.530;11.754;2023-04-15T03:51:01;0.90;;;0.57;;
40074;SDS011;26529;51.530;11.754;2023-04-15T03:53:28;2.22;;;0.60;;
40074;SDS011;26529;51.530;11.754;2023-04-15T03:55:54;1.48;;;0.57;;
40074;SDS011;26529;51.530;11.754;2023-04-15T03:58:21;1.63;;;0.50;;
40074;SDS011;26529;51.530;11.754;2023-04-15T04:00:48;1.00;;;0.40;;
40074;SDS011;26529;51.530;11.754;2023-04-15T04:03:15;2.55;;;0.70;;
40074;SDS011;26529;51.530;11.754;2023-04-15T04:05:41;1.30;;;0.50;;
40074;SDS011;26529;51.530;11.754;2023-04-15T04:08:09;3.05;;;0.60;;
40074;SDS011;26529;51.530;11.754;2023-04-15T04:10:39;1.70;;;0.75;;
40074;SDS011;26529;51.530;11.754;2023-04-15T04:13:05;1.52;;;0.50;;
40074;SDS011;26529;51.530;11.754;2023-04-15T04:15:32;1.15;;;0.57;;
40074;SDS011;26529;51.530;11.754;2023-04-15T04:17:59;1.20;;;0.45;;
40074;SDS011;26529;51.530;11.754;2023-04-15T04:20:26;2.03;;;0.47;;
40074;SDS011;26529;51.530;11.754;2023-04-15T04:22:52;0.98;;;0.43;;
40074;SDS011;26529;51.530;11.754;2023-04-15T04:25:19;0.63;;;0.50;;
40074;SDS011;26529;51.530;11.754;2023-04-15T04:27:47;0.80;;;0.25;;
40074;SDS011;26529;51.530;11.754;2023-04-15T04:30:13;0.52;;;0.38;;
40074;SDS011;26529;51.530;11.754;2023-04-15T04:32:40;1.00;;;0.50;;
40074;SDS011;26529;51.530;11.754;2023-04-15T04:35:07;0.60;;;0.30;;
40074;SDS011;26529;51.530;11.754;2023-04-15T04:37:34;0.98;;;0.40;;
40074;SDS011;26529;51.530;11.754;2023-04-15T04:40:01;2.08;;;0.95;;
40074;SDS011;26529;51.530;11.754;2023-04-15T04:42:27;1.27;;;0.80;;
40074;SDS011;26529;51.530;11.754;2023-04-15T04:44:54;1.90;;;0.50;;
40074;SDS011;26529;51.530;11.754;2023-04-15T04:47:21;0.50;;;0.30;;
40074;SDS011;26529;51.530;11.754;2023-04-15T04:49:47;1.10;;;0.57;;
40074;SDS011;26529;51.530;11.754;2023-04-15T04:52:14;0.50;;;0.30;;
40074;SDS011;26529;51.530;11.754;2023-04-15T04:54:41;0.90;;;0.50;;
40074;SDS011;26529;51.530;11.754;2023-04-15T04:57:08;1.83;;;0.50;;
40074;SDS011;26529;51.530;11.754;2023-04-15T04:59:34;1.40;;;0.57;;
40074;SDS011;26529;51.530;11.754;2023-04-15T05:02:01;0.80;;;0.40;;
40074;SDS011;26529;51.530;11.754;2023-04-15T05:04:29;4.85;;;0.50;;
40074;SDS011;26529;51.530;11.754;2023-04-15T05:06:57;0.63;;;0.30;;
40074;SDS011;26529;51.530;11.754;2023-04-15T05:09:24;1.13;;;0.70;;
40074;SDS011;26529;51.530;11.754;2023-04-15T05:11:51;1.45;;;0.47;;
40074;SDS011;26529;51.530;11.754;2023-04-15T05:14:18;0.50;;;0.30;;
40074;SDS011;26529;51.530;11.754;2023-04-15T05:16:45;3.53;;;0.63;;
40074;SDS011;26529;51.530;11.754;2023-04-15T05:19:12;2.65;;;0.40;;
40074;SDS011;26529;51.530;11.754;2023-04-15T05:21:38;1.67;;;0.47;;
40074;SDS011;26529;51.530;11.754;2023-04-15T05:24:05;2.33;;;0.77;;
40074;SDS011;26529;51.530;11.754;2023-04-15T05:26:32;0.85;;;0.50;;
40074;SDS011;26529;51.530;11.754;2023-04-15T05:28:59;1.85;;;0.45;;
40074;SDS011;26529;51.530;11.754;2023-04-15T05:31:25;5.85;;;0.60;;
40074;SDS011;26529;51.530;11.754;2023-04-15T05:33:52;2.63;;;0.70;;
40074;SDS011;26529;51.530;11.754;2023-04-15T05:36:19;1.10;;;0.50;;
40074;SDS011;26529;51.530;11.754;2023-04-15T05:38:46;1.67;;;0.43;;
40074;SDS011;26529;51.530;11.754;2023-04-15T05:41:13;1.77;;;0.70;;
40074;SDS011;26529;51.530;11.754;2023-04-15T05:43:41;1.40;;;0.57;;
40074;SDS011;26529;51.530;11.754;2023-04-15T05:46:07;2.15;;;0.70;;
40074;SDS011;26529;51.530;11.754;2023-04-15T05:48:34;1.92;;;0.63;;
40074;SDS011;26529;51.530;11.754;2023-04-15T05:51:01;3.20;;;0.63;;
40074;SDS011;26529;51.530;11.754;2023-04-15T05:53:28;2.15;;;0.70;;
40074;SDS011;26529;51.530;11.754;2023-04-15T05:55:54;3.42;;;0.80;;
40074;SDS011;26529;51.530;11.754;2023-04-15T05:58:21;1.95;;;0.57;;
40074;SDS011;26529;51.530;11.754;2023-04-15T06:00:48;2.33;;;0.70;;
40074;SDS011;26529;51.530;11.754;2023-04-15T06:03:14;7.85;;;0.90;;
40074;SDS011;26529;51.530;11.754;2023-04-15T06:05:42;5.00;;;0.80;;
40074;SDS011;26529;51.530;11.754;2023-04-15T06:08:10;5.03;;;1.08;;
40074;SDS011;26529;51.530;11.754;2023-04-15T06:10:37;4.28;;;0.98;;
40074;SDS011;26529;51.530;11.754;2023-04-15T06:13:04;4.15;;;1.10;;
40074;SDS011;26529;51.530;11.754;2023-04-15T06:15:30;5.65;;;1.00;;
40074;SDS011;26529;51.530;11.754;2023-04-15T06:17:57;3.28;;;0.93;;
40074;SDS011;26529;51.530;11.754;2023-04-15T06:20:24;2.85;;;0.63;;
40074;SDS011;26529;51.530;11.754;2023-04-15T06:22:51;3.85;;;0.57;;
40074;SDS011;26529;51.530;11.754;2023-04-15T06:25:18;5.93;;;1.13;;
40074;SDS011;26529;51.530;11.754;2023-04-15T06:27:45;7.18;;;1.38;;
40074;SDS011;26529;51.530;11.754;2023-04-15T06:30:11;5.55;;;0.93;;
40074;SDS011;26529;51.530;11.754;2023-04-15T06:32:39;3.63;;;1.08;;
40074;SDS011;26529;51.530;11.754;2023-04-15T06:35:05;6.30;;;1.05;;
40074;SDS011;26529;51.530;11.754;2023-04-15T06:37:32;4.32;;;0.80;;
40074;SDS011;26529;51.530;11.754;2023-04-15T06:39:59;2.67;;;0.63;;
40074;SDS011;26529;51.530;11.754;2023-04-15T06:42:25;4.00;;;0.65;;
40074;SDS011;26529;51.530;11.754;2023-04-15T06:44:53;5.07;;;0.60;;
40074;SDS011;26529;51.530;11.754;2023-04-15T06:47:20;4.35;;;0.82;;
40074;SDS011;26529;51.530;11.754;2023-04-15T06:49:46;4.43;;;1.00;;
40074;SDS011;26529;51.530;11.754;2023-04-15T06:52:13;4.15;;;1.15;;
40074;SDS011;26529;51.530;11.754;2023-04-15T06:54:42;3.95;;;1.10;;
40074;SDS011;26529;51.530;11.754;2023-04-15T06:57:08;3.25;;;1.10;;
40074;SDS011;26529;51.530;11.754;2023-04-15T06:59:35;4.97;;;1.25;;
40074;SDS011;26529;51.530;11.754;2023-04-15T07:02:02;6.43;;;1.20;;
40074;SDS011;26529;51.530;11.754;2023-04-15T07:04:29;2.45;;;0.70;;
40074;SDS011;26529;51.530;11.754;2023-04-15T07:06:55;12.02;;;0.90;;
40074;SDS011;26529;51.530;11.754;2023-04-15T07:09:23;2.72;;;0.90;;
40074;SDS011;26529;51.530;11.754;2023-04-15T07:11:50;8.75;;;1.08;;
40074;SDS011;26529;51.530;11.754;2023-04-15T07:14:17;8.68;;;1.67;;
40074;SDS011;26529;51.530;11.754;2023-04-15T07:16:43;4.15;;;0.95;;
40074;SDS011;26529;51.530;11.754;2023-04-15T07:19:10;8.75;;;1.15;;
40074;SDS011;26529;51.530;11.754;2023-04-15T07:21:37;5.82;;;1.23;;
40074;SDS011;26529;51.530;11.754;2023-04-15T07:24:04;5.00;;;1.42;;
40074;SDS011;26529;51.530;11.754;2023-04-15T07:26:31;5.82;;;1.00;;
40074;SDS011;26529;51.530;11.754;2023-04-15T07:28:57;4.60;;;1.27;;
40074;SDS011;26529;51.530;11.754;2023-04-15T07:31:24;3.17;;;0.70;;
40074;SDS011;26529;51.530;11.754;2023-04-15T07:33:51;5.20;;;0.90;;
40074;SDS011;26529;51.530;11.754;2023-04-15T07:36:18;5.80;;;1.77;;
40074;SDS011;26529;51.530;11.754;2023-04-15T07:38:46;8.75;;;1.17;;
40074;SDS011;26529;51.530;11.754;2023-04-15T07:41:13;8.90;;;1.25;;
40074;SDS011;26529;51.530;11.754;2023-04-15T07:43:39;6.22;;;1.25;;
40074;SDS011;26529;51.530;11.754;2023-04-15T07:46:06;16.55;;;2.00;;
40074;SDS011;26529;51.530;11.754;2023-04-15T07:48:33;8.95;;;2.03;;
40074;SDS011;26529;51.530;11.754;2023-04-15T07:51:00;7.93;;;1.50;;
40074;SDS011;26529;51.530;11.754;2023-04-15T07:53:28;9.35;;;1.45;;
40074;SDS011;26529;51.530;11.754;2023-04-15T07:55:54;10.75;;;1.45;;
40074;SDS011;26529;51.530;11.754;2023-04-15T07:58:21;12.57;;;1.20;;
40074;SDS011;26529;51.530;11.754;2023-04-15T08:00:48;9.98;;;1.88;;
40074;SDS011;26529;51.530;11.754;2023-04-15T08:03:15;11.27;;;2.22;;
40074;SDS011;26529;51.530;11.754;2023-04-15T08:05:41;8.25;;;1.25;;
40074;SDS011;26529;51.530;11.754;2023-04-15T08:08:08;10.13;;;1.70;;
40074;SDS011;26529;51.530;11.754;2023-04-15T08:10:35;11.63;;;1.50;;
40074;SDS011;26529;51.530;11.754;2023-04-15T08:13:03;11.15;;;1.90;;
40074;SDS011;26529;51.530;11.754;2023-04-15T08:15:29;6.85;;;1.38;;
40074;SDS011;26529;51.530;11.754;2023-04-15T08:17:58;8.13;;;1.35;;
40074;SDS011;26529;51.530;11.754;2023-04-15T08:20:26;20.23;;;2.72;;
40074;SDS011;26529;51.530;11.754;2023-04-15T08:22:53;11.40;;;1.38;;
40074;SDS011;26529;51.530;11.754;2023-04-15T08:25:19;11.40;;;1.83;;
40074;SDS011;26529;51.530;11.754;2023-04-15T08:27:47;13.45;;;1.75;;
40074;SDS011;26529;51.530;11.754;2023-04-15T08:30:13;10.80;;;1.52;;
40074;SDS011;26529;51.530;11.754;2023-04-15T08:32:46;11.45;;;1.65;;
40074;SDS011;26529;51.530;11.754;2023-04-15T08:35:13;18.15;;;1.80;;
40074;SDS011;26529;51.530;11.754;2023-04-15T08:37:39;11.10;;;2.03;;
40074;SDS011;26529;51.530;11.754;2023-04-15T08:40:06;13.05;;;1.70;;
40074;SDS011;26529;51.530;11.754;2023-04-15T08:42:36;12.60;;;1.67;;
40074;SDS011;26529;51.530;11.754;2023-04-15T08:45:07;11.15;;;1.70;;
40074;SDS011;26529;51.530;11.754;2023-04-15T08:47:35;9.82;;;1.40;;
40074;SDS011;26529;51.530;11.754;2023-04-15T08:50:05;15.82;;;1.92;;
40074;SDS011;26529;51.530;11.754;2023-04-15T08:52:36;9.77;;;1.90;;
40074;SDS011;26529;51.530;11.754;2023-04-15T08:55:03;14.63;;;2.17;;
40074;SDS011;26529;51.530;11.754;2023-04-15T08:57:30;15.50;;;2.45;;
40074;SDS011;26529;51.530;11.754;2023-04-15T08:59:57;10.27;;;2.90;;
40074;SDS011;26529;51.530;11.754;2023-04-15T09:02:24;13.73;;;4.15;;
40074;SDS011;26529;51.530;11.754;2023-04-15T09:04:52;9.48;;;3.42;;
40074;SDS011;26529;51.530;11.754;2023-04-15T09:07:19;10.25;;;5.53;;
40074;SDS011;26529;51.530;11.754;2023-04-15T09:09:46;10.98;;;5.10;;
40074;SDS011;26529;51.530;11.754;2023-04-15T09:12:14;11.93;;;5.28;;
40074;SDS011;26529;51.530;11.754;2023-04-15T09:14:44;15.40;;;4.25;;
40074;SDS011;26529;51.530;11.754;2023-04-15T09:17:11;16.05;;;4.25;;
40074;SDS011;26529;51.530;11.754;2023-04-15T09:19:38;9.30;;;4.30;;
40074;SDS011;26529;51.530;11.754;2023-04-15T09:22:05;11.88;;;4.03;;
40074;SDS011;26529;51.530;11.754;2023-04-15T09:24:38;11.95;;;3.70;;
40074;SDS011;26529;51.530;11.754;2023-04-15T09:29:34;11.23;;;4.55;;
40074;SDS011;26529;51.530;11.754;2023-04-15T09:32:10;8.15;;;3.80;;
40074;SDS011;26529;51.530;11.754;2023-04-15T09:34:41;9.35;;;4.00;;
40074;SDS011;26529;51.530;11.754;2023-04-15T09:37:08;10.38;;;4.85;;
40074;SDS011;26529;51.530;11.754;2023-04-15T09:39:49;11.15;;;4.22;;
40074;SDS011;26529;51.530;11.754;2023-04-15T09:42:17;11.40;;;4.60;;
40074;SDS011;26529;51.530;11.754;2023-04-15T09:44:50;12.38;;;4.60;;
40074;SDS011;26529;51.530;11.754;2023-04-15T09:47:28;13.20;;;4.50;;
40074;SDS011;26529;51.530;11.754;2023-04-15T09:50:00;9.30;;;4.22;;
40074;SDS011;26529;51.530;11.754;2023-04-15T09:52:28;8.48;;;4.15;;
40074;SDS011;26529;51.530;11.754;2023-04-15T09:54:58;9.18;;;4.22;;
40074;SDS011;26529;51.530;11.754;2023-04-15T09:57:32;12.35;;;3.80;;
40074;SDS011;26529;51.530;11.754;2023-04-15T10:00:02;8.07;;;3.15;;
40074;SDS011;26529;51.530;11.754;2023-04-15T10:02:33;9.50;;;3.95;;
40074;SDS011;26529;51.530;11.754;2023-04-15T10:05:01;8.43;;;3.70;;
40074;SDS011;26529;51.530;11.754;2023-04-15T10:07:28;10.18;;;3.60;;
40074;SDS011;26529;51.530;11.754;2023-04-15T10:09:55;7.75;;;3.33;;
40074;SDS011;26529;51.530;11.754;2023-04-15T10:12:22;12.57;;;3.63;;
40074;SDS011;26529;51.530;11.754;2023-04-15T10:14:54;9.18;;;3.25;;
40074;SDS011;26529;51.530;11.754;2023-04-15T10:17:24;12.30;;;3.45;;
40074;SDS011;26529;51.530;11.754;2023-04-15T10:19:54;9.30;;;3.88;;
40074;SDS011;26529;51.530;11.754;2023-04-15T10:22:21;6.85;;;3.85;;
40074;SDS011;26529;51.530;11.754;2023-04-15T10:24:49;10.07;;;4.40;;
40074;SDS011;26529;51.530;11.754;2023-04-15T10:27:17;10.35;;;4.60;;
40074;SDS011;26529;51.530;11.754;2023-04-15T10:29:44;12.48;;;6.03;;
40074;SDS011;26529;51.530;11.754;2023-04-15T10:32:11;10.48;;;3.35;;
40074;SDS011;26529;51.530;11.754;2023-04-15T10:34:39;8.88;;;5.60;;
40074;SDS011;26529;51.530;11.754;2023-04-15T10:37:08;10.25;;;4.85;;
40074;SDS011;26529;51.530;11.754;2023-04-15T10:42:06;11.95;;;3.70;;
40074;SDS011;26529;51.530;11.754;2023-04-15T10:44:38;10.17;;;3.30;;
40074;SDS011;26529;51.530;11.754;2023-04-15T10:47:17;9.27;;;3.40;;
40074;SDS011;26529;51.530;11.754;2023-04-15T10:49:46;8.52;;;2.65;;
40074;SDS011;26529;51.530;11.754;2023-04-15T10:52:21;10.30;;;3.08;;
40074;SDS011;26529;51.530;11.754;2023-04-15T10:54:49;6.55;;;3.35;;
40074;SDS011;26529;51.530;11.754;2023-04-15T10:57:54;9.27;;;3.33;;
40074;SDS011;26529;51.530;11.754;2023-04-15T11:00:24;10.32;;;3.10;;
40074;SDS011;26529;51.530;11.754;2023-04-15T11:02:54;10.32;;;3.22;;
40074;SDS011;26529;51.530;11.754;2023-04-15T11:05:47;11.23;;;3.80;;
40074;SDS011;26529;51.530;11.754;2023-04-15T11:08:19;10.95;;;3.22;;
40074;SDS011;26529;51.530;11.754;2023-04-15T11:11:06;13.48;;;3.50;;
40074;SDS011;26529;51.530;11.754;2023-04-15T11:13:33;9.65;;;2.72;;
40074;SDS011;26529;51.530;11.754;2023-04-15T11:15:59;13.20;;;2.95;;
40074;SDS011;26529;51.530;11.754;2023-04-15T11:18:28;8.02;;;2.72;;
40074;SDS011;26529;51.530;11.754;2023-04-15T11:21:00;10.65;;;3.30;;
40074;SDS011;26529;51.530;11.754;2023-04-15T11:23:33;4.97;;;2.88;;
40074;SDS011;26529;51.530;11.754;2023-04-15T11:26:03;7.97;;;3.13;;
40074;SDS011;26529;51.530;11.754;2023-04-15T11:28:35;9.23;;;3.17;;
40074;SDS011;26529;51.530;11.754;2023-04-15T11:31:06;11.95;;;3.15;;
40074;SDS011;26529;51.530;11.754;2023-04-15T11:33:36;9.75;;;2.88;;
40074;SDS011;26529;51.530;11.754;2023-04-15T11:36:04;10.70;;;2.88;;
40074;SDS011;26529;51.530;11.754;2023-04-15T11:38:33;13.60;;;3.58;;
40074;SDS011;26529;51.530;11.754;2023-04-15T11:40:59;9.88;;;3.08;;
40074;SDS011;26529;51.530;11.754;2023-04-15T11:43:27;10.18;;;3.05;;
40074;SDS011;26529;51.530;11.754;2023-04-15T11:45:58;12.95;;;3.25;;
40074;SDS011;26529;51.530;11.754;2023-04-15T11:48:32;11.75;;;3.25;;
40074;SDS011;26529;51.530;11.754;2023-04-15T11:51:01;8.13;;;2.53;;
40074;SDS011;26529;51.530;11.754;2023-04-15T11:53:42;6.28;;;3.25;;
40074;SDS011;26529;51.530;11.754;2023-04-15T11:56:15;10.80;;;3.00;;
40074;SDS011;26529;51.530;11.754;2023-04-15T11:58:44;9.32;;;3.17;;
40074;SDS011;26529;51.530;11.754;2023-04-15T12:01:10;8.93;;;2.90;;
40074;SDS011;26529;51.530;11.754;2023-04-15T12:03:40;8.55;;;2.92;;
40074;SDS011;26529;51.530;11.754;2023-04-15T12:06:20;10.15;;;3.30;;
40074;SDS011;26529;51.530;11.754;2023-04-15T12:11:44;9.35;;;3.40;;
40074;SDS011;26529;51.530;11.754;2023-04-15T12:16:46;23.02;;;3.00;;
40074;SDS011;26529;51.530;11.754;2023-04-15T12:19:14;7.20;;;2.90;;
40074;SDS011;26529;51.530;11.754;2023-04-15T12:21:43;7.28;;;2.88;;
40074;SDS011;26529;51.530;11.754;2023-04-15T12:24:11;7.57;;;3.40;;
40074;SDS011;26529;51.530;11.754;2023-04-15T12:29:04;6.35;;;3.42;;
40074;SDS011;26529;51.530;11.754;2023-04-15T12:31:31;5.22;;;3.10;;
40074;SDS011;26529;51.530;11.754;2023-04-15T12:33:57;5.38;;;3.05;;
40074;SDS011;26529;51.530;11.754;2023-04-15T12:36:25;7.40;;;3.08;;
40074;SDS011;26529;51.530;11.754;2023-04-15T12:38:50;8.18;;;3.10;;
40074;SDS011;26529;51.530;11.754;2023-04-15T12:41:16;8.27;;;3.00;;
40074;SDS011;26529;51.530;11.754;2023-04-15T12:43:45;7.57;;;2.70;;
40074;SDS011;26529;51.530;11.754;2023-04-15T12:46:11;4.70;;;2.88;;
40074;SDS011;26529;51.530;11.754;2023-04-15T12:48:38;6.03;;;3.17;;
40074;SDS011;26529;51.530;11.754;2023-04-15T12:51:04;6.93;;;3.30;;
40074;SDS011;26529;51.530;11.754;2023-04-15T12:53:30;6.10;;;3.00;;
40074;SDS011;26529;51.530;11.754;2023-04-15T12:55:55;6.50;;;2.88;;
40074;SDS011;26529;51.530;11.754;2023-04-15T12:58:21;9.70;;;2.92;;
40074;SDS011;26529;51.530;11.754;2023-04-15T13:00:46;8.52;;;3.00;;
40074;SDS011;26529;51.530;11.754;2023-04-15T13:03:13;9.13;;;3.55;;
40074;SDS011;26529;51.530;11.754;2023-04-15T13:05:39;7.93;;;3.53;;
40074;SDS011;26529;51.530;11.754;2023-04-15T13:08:05;5.68;;;2.58;;
40074;SDS011;26529;51.530;11.754;2023-04-15T13:10:31;7.25;;;3.00;;
40074;SDS011;26529;51.530;11.754;2023-04-15T13:12:57;8.10;;;3.10;;
40074;SDS011;26529;51.530;11.754;2023-04-15T13:15:22;10.13;;;3.20;;
40074;SDS011;26529;51.530;11.754;2023-04-15T13:17:50;5.97;;;2.63;;
40074;SDS011;26529;51.530;11.754;2023-04-15T13:20:16;8.30;;;2.78;;
40074;SDS011;26529;51.530;11.754;2023-04-15T13:22:41;7.13;;;2.85;;
40074;SDS011;26529;51.530;11.754;2023-04-15T13:25:07;8.55;;;3.15;;
40074;SDS011;26529;51.530;11.754;2023-04-15T13:27:33;12.88;;;3.97;;
40074;SDS011;26529;51.530;11.754;2023-04-15T13:29:59;13.32;;;3.10;;
40074;SDS011;26529;51.530;11.754;2023-04-15T13:32:25;6.80;;;3.20;;
40074;SDS011;26529;51.530;11.754;2023-04-15T13:34:50;11.52;;;3.75;;
40074;SDS011;26529;51.530;11.754;2023-04-15T13:37:16;9.80;;;3.22;;
40074;SDS011;26529;51.530;11.754;2023-04-15T13:39:42;15.60;;;3.65;;
40074;SDS011;26529;51.530;11.754;2023-04-15T13:42:07;9.32;;;3.05;;
40074;SDS011;26529;51.530;11.754;2023-04-15T13:44:33;6.85;;;3.40;;
40074;SDS011;26529;51.530;11.754;2023-04-15T13:46:59;11.20;;;3.05;;
40074;SDS011;26529;51.530;11.754;2023-04-15T13:49:24;7.28;;;2.65;;
40074;SDS011;26529;51.530;11.754;2023-04-15T13:51:50;4.85;;;2.50;;
40074;SDS011;26529;51.530;11.754;2023-04-15T13:54:15;9.88;;;2.95;;
40074;SDS011;26529;51.530;11.754;2023-04-15T13:56:41;13.57;;;3.40;;
40074;SDS011;26529;51.530;11.754;2023-04-15T13:59:06;12.85;;;3.72;;
40074;SDS011;26529;51.530;11.754;2023-04-15T14:01:33;10.27;;;3.13;;
40074;SDS011;26529;51.530;11.754;2023-04-15T14:03:58;13.20;;;2.97;;
40074;SDS011;26529;51.530;11.754;2023-04-15T14:06:24;10.23;;;2.97;;
40074;SDS011;26529;51.530;11.754;2023-04-15T14:08:51;10.68;;;3.15;;
40074;SDS011;26529;51.530;11.754;2023-04-15T14:11:16;14.10;;;3.30;;
40074;SDS011;26529;51.530;11.754;2023-04-15T14:13:42;9.48;;;3.33;;
40074;SDS011;26529;51.530;11.754;2023-04-15T14:16:08;13.00;;;2.92;;
40074;SDS011;26529;51.530;11.754;2023-04-15T14:18:33;14.60;;;3.03;;
40074;SDS011;26529;51.530;11.754;2023-04-15T14:20:59;10.35;;;3.10;;
40074;SDS011;26529;51.530;11.754;2023-04-15T14:23:25;9.18;;;2.92;;
40074;SDS011;26529;51.530;11.754;2023-04-15T14:25:50;12.32;;;2.90;;
40074;SDS011;26529;51.530;11.754;2023-04-15T14:28:16;14.52;;;3.28;;
40074;SDS011;26529;51.530;11.754;2023-04-15T14:30:42;7.43;;;3.03;;
40074;SDS011;26529;51.530;11.754;2023-04-15T14:33:07;9.27;;;2.97;;
40074;SDS011;26529;51.530;11.754;2023-04-15T14:35:33;10.63;;;2.83;;
40074;SDS011;26529;51.530;11.754;2023-04-15T14:37:59;7.85;;;2.72;;
40074;SDS011;26529;51.530;11.754;2023-04-15T14:40:25;11.88;;;3.60;;
40074;SDS011;26529;51.530;11.754;2023-04-15T14:42:50;6.25;;;2.78;;
40074;SDS011;26529;51.530;11.754;2023-04-15T14:45:16;8.13;;;3.25;;